sensor_id;sensor_type;location;lat;lon;timestamp;P1;durP1;ratioP1;P2;durP2;ratioP2
74196;SDS011;62555;52.678;4.900;2023-01-10T00:01:24;3.72;;;1.60;;
74196;SDS011;62555;52.678;4.900;2023-01-10T00:03:49;3.92;;;2.28;;
74196;SDS011;62555;52.678;4.900;2023-01-10T00:06:15;5.88;;;1.48;;
74196;SDS011;62555;52.678;4.900;2023-01-10T00:08:40;4.32;;;1.52;;
74196;SDS011;62555;52.678;4.900;2023-01-10T00:11:05;3.60;;;1.60;;
74196;SDS011;62555;52.678;4.900;2023-01-10T00:13:54;6.38;;;1.98;;
74196;SDS011;62555;52.678;4.900;2023-01-10T00:16:20;6.18;;;1.95;;
74196;SDS011;62555;52.678;4.900;2023-01-10T00:18:45;5.93;;;1.75;;
74196;SDS011;62555;52.678;4.900;2023-01-10T00:21:11;5.20;;;1.42;;
74196;SDS011;62555;52.678;4.900;2023-01-10T00:23:38;2.63;;;1.27;;
74196;SDS011;62555;52.678;4.900;2023-01-10T00:26:03;6.85;;;1.52;;
74196;SDS011;62555;52.678;4.900;2023-01-10T00:28:29;4.90;;;1.45;;
74196;SDS011;62555;52.678;4.900;2023-01-10T00:30:58;4.05;;;1.27;;
74196;SDS011;62555;52.678;4.900;2023-01-10T00:33:30;5.22;;;1.83;;
74196;SDS011;62555;52.678;4.900;2023-01-10T00:35:57;3.78;;;1.52;;
74196;SDS011;62555;52.678;4.900;2023-01-10T00:38:23;4.18;;;1.73;;
74196;SDS011;62555;52.678;4.900;2023-01-10T00:40:48;3.55;;;1.85;;
74196;SDS011;62555;52.678;4.900;2023-01-10T00:43:14;6.38;;;1.80;;
74196;SDS011;62555;52.678;4.900;2023-01-10T00:45:57;5.18;;;1.60;;
74196;SDS011;62555;52.678;4.900;2023-01-10T00:48:23;6.97;;;2.53;;
74196;SDS011;62555;52.678;4.900;2023-01-10T00:50:48;3.15;;;1.42;;
74196;SDS011;62555;52.678;4.900;2023-01-10T00:53:13;4.45;;;1.15;;
74196;SDS011;62555;52.678;4.900;2023-01-10T00:55:39;5.93;;;1.40;;
74196;SDS011;62555;52.678;4.900;2023-01-10T00:58:04;5.20;;;1.63;;
74196;SDS011;62555;52.678;4.900;2023-01-10T01:00:30;4.80;;;1.98;;
74196;SDS011;62555;52.678;4.900;2023-01-10T01:02:55;2.38;;;1.30;;
74196;SDS011;62555;52.678;4.900;2023-01-10T01:05:21;5.35;;;1.40;;
74196;SDS011;62555;52.678;4.900;2023-01-10T01:07:49;5.43;;;2.33;;
74196;SDS011;62555;52.678;4.900;2023-01-10T01:10:15;5.22;;;1.60;;
74196;SDS011;62555;52.678;4.900;2023-01-10T01:12:50;6.60;;;1.63;;
74196;SDS011;62555;52.678;4.900;2023-01-10T01:15:15;4.72;;;1.50;;
74196;SDS011;62555;52.678;4.900;2023-01-10T01:17:41;6.97;;;2.00;;
74196;SDS011;62555;52.678;4.900;2023-01-10T01:20:06;6.30;;;1.80;;
74196;SDS011;62555;52.678;4.900;2023-01-10T01:22:32;6.80;;;1.75;;
74196;SDS011;62555;52.678;4.900;2023-01-10T01:24:58;3.90;;;1.42;;
74196;SDS011;62555;52.678;4.900;2023-01-10T01:27:23;5.28;;;2.10;;
74196;SDS011;62555;52.678;4.900;2023-01-10T01:29:48;4.57;;;1.85;;
74196;SDS011;62555;52.678;4.900;2023-01-10T01:32:14;7.38;;;1.88;;
74196;SDS011;62555;52.678;4.900;2023-01-10T01:34:39;4.18;;;1.75;;
74196;SDS011;62555;52.678;4.900;2023-01-10T01:37:05;4.85;;;1.60;;
74196;SDS011;62555;52.678;4.900;2023-01-10T01:39:30;3.92;;;1.50;;
74196;SDS011;62555;52.678;4.900;2023-01-10T01:41:56;4.85;;;2.08;;
74196;SDS011;62555;52.678;4.900;2023-01-10T01:44:21;5.32;;;1.63;;
74196;SDS011;62555;52.678;4.900;2023-01-10T01:47:05;5.22;;;1.60;;
74196;SDS011;62555;52.678;4.900;2023-01-10T01:49:33;6.68;;;2.17;;
74196;SDS011;62555;52.678;4.900;2023-01-10T01:52:01;6.32;;;1.63;;
74196;SDS011;62555;52.678;4.900;2023-01-10T01:54:33;4.35;;;1.48;;
74196;SDS011;62555;52.678;4.900;2023-01-10T01:57:03;4.05;;;1.50;;
74196;SDS011;62555;52.678;4.900;2023-01-10T01:59:33;6.53;;;2.10;;
74196;SDS011;62555;52.678;4.900;2023-01-10T02:02:07;5.88;;;1.90;;
74196;SDS011;62555;52.678;4.900;2023-01-10T02:07:28;6.65;;;1.88;;
74196;SDS011;62555;52.678;4.900;2023-01-10T02:12:35;8.00;;;2.45;;
74196;SDS011;62555;52.678;4.900;2023-01-10T02:15:00;6.28;;;2.00;;
74196;SDS011;62555;52.678;4.900;2023-01-10T02:17:27;3.65;;;1.48;;
74196;SDS011;62555;52.678;4.900;2023-01-10T02:19:59;6.70;;;2.22;;
74196;SDS011;62555;52.678;4.900;2023-01-10T02:22:35;8.88;;;2.80;;
74196;SDS011;62555;52.678;4.900;2023-01-10T02:33:45;5.07;;;1.45;;
74196;SDS011;62555;52.678;4.900;2023-01-10T02:39:10;7.97;;;2.00;;
74196;SDS011;62555;52.678;4.900;2023-01-10T02:41:44;6.75;;;1.73;;
74196;SDS011;62555;52.678;4.900;2023-01-10T02:44:18;4.63;;;1.98;;
74196;SDS011;62555;52.678;4.900;2023-01-10T02:46:46;7.30;;;2.65;;
74196;SDS011;62555;52.678;4.900;2023-01-10T02:49:12;6.53;;;1.92;;
74196;SDS011;62555;52.678;4.900;2023-01-10T02:51:38;6.03;;;1.85;;
74196;SDS011;62555;52.678;4.900;2023-01-10T03:02:14;5.85;;;1.83;;
74196;SDS011;62555;52.678;4.900;2023-01-10T03:05:18;8.48;;;2.17;;
74196;SDS011;62555;52.678;4.900;2023-01-10T03:10:34;7.13;;;2.60;;
74196;SDS011;62555;52.678;4.900;2023-01-10T03:13:11;4.28;;;2.03;;
74196;SDS011;62555;52.678;4.900;2023-01-10T03:15:39;5.82;;;2.08;;
74196;SDS011;62555;52.678;4.900;2023-01-10T03:18:20;6.45;;;2.78;;
74196;SDS011;62555;52.678;4.900;2023-01-10T03:20:48;6.50;;;1.90;;
74196;SDS011;62555;52.678;4.900;2023-01-10T03:23:15;7.75;;;2.20;;
74196;SDS011;62555;52.678;4.900;2023-01-10T03:25:40;6.10;;;1.67;;
74196;SDS011;62555;52.678;4.900;2023-01-10T03:28:08;5.47;;;2.00;;
74196;SDS011;62555;52.678;4.900;2023-01-10T03:30:45;7.93;;;2.05;;
74196;SDS011;62555;52.678;4.900;2023-01-10T03:33:17;4.05;;;2.10;;
74196;SDS011;62555;52.678;4.900;2023-01-10T03:38:42;5.80;;;2.40;;
74196;SDS011;62555;52.678;4.900;2023-01-10T03:41:12;7.72;;;1.92;;
74196;SDS011;62555;52.678;4.900;2023-01-10T03:43:51;5.97;;;1.95;;
74196;SDS011;62555;52.678;4.900;2023-01-10T03:46:43;6.97;;;2.45;;
74196;SDS011;62555;52.678;4.900;2023-01-10T03:49:11;8.93;;;2.13;;
74196;SDS011;62555;52.678;4.900;2023-01-10T03:51:37;8.75;;;2.13;;
74196;SDS011;62555;52.678;4.900;2023-01-10T03:54:03;5.18;;;2.08;;
74196;SDS011;62555;52.678;4.900;2023-01-10T03:56:29;11.55;;;2.95;;
74196;SDS011;62555;52.678;4.900;2023-01-10T03:58:54;7.13;;;2.17;;
74196;SDS011;62555;52.678;4.900;2023-01-10T04:01:19;5.05;;;2.05;;
74196;SDS011;62555;52.678;4.900;2023-01-10T04:03:45;9.75;;;2.72;;
74196;SDS011;62555;52.678;4.900;2023-01-10T04:06:10;5.85;;;1.83;;
74196;SDS011;62555;52.678;4.900;2023-01-10T04:08:35;6.60;;;2.28;;
74196;SDS011;62555;52.678;4.900;2023-01-10T04:11:01;5.90;;;2.00;;
74196;SDS011;62555;52.678;4.900;2023-01-10T04:13:26;8.55;;;2.70;;
74196;SDS011;62555;52.678;4.900;2023-01-10T04:15:51;6.90;;;2.58;;
74196;SDS011;62555;52.678;4.900;2023-01-10T04:18:17;4.63;;;2.28;;
74196;SDS011;62555;52.678;4.900;2023-01-10T04:20:43;7.38;;;2.15;;
74196;SDS011;62555;52.678;4.900;2023-01-10T04:23:08;8.35;;;2.20;;
74196;SDS011;62555;52.678;4.900;2023-01-10T04:25:34;7.50;;;2.28;;
74196;SDS011;62555;52.678;4.900;2023-01-10T04:27:59;5.72;;;2.15;;
74196;SDS011;62555;52.678;4.900;2023-01-10T04:30:24;5.32;;;1.98;;
74196;SDS011;62555;52.678;4.900;2023-01-10T04:32:50;5.80;;;3.30;;
74196;SDS011;62555;52.678;4.900;2023-01-10T04:35:15;5.13;;;2.00;;
74196;SDS011;62555;52.678;4.900;2023-01-10T04:37:41;6.90;;;2.38;;
74196;SDS011;62555;52.678;4.900;2023-01-10T04:40:07;8.00;;;2.35;;
74196;SDS011;62555;52.678;4.900;2023-01-10T04:42:33;5.22;;;2.17;;
74196;SDS011;62555;52.678;4.900;2023-01-10T04:44:58;7.00;;;2.38;;
74196;SDS011;62555;52.678;4.900;2023-01-10T04:47:23;8.25;;;3.28;;
74196;SDS011;62555;52.678;4.900;2023-01-10T04:49:49;7.22;;;2.40;;
74196;SDS011;62555;52.678;4.900;2023-01-10T04:52:14;5.15;;;2.22;;
74196;SDS011;62555;52.678;4.900;2023-01-10T04:54:40;9.73;;;2.58;;
74196;SDS011;62555;52.678;4.900;2023-01-10T04:57:05;9.63;;;2.72;;
74196;SDS011;62555;52.678;4.900;2023-01-10T04:59:30;6.35;;;2.10;;
74196;SDS011;62555;52.678;4.900;2023-01-10T05:01:56;7.97;;;2.33;;
74196;SDS011;62555;52.678;4.900;2023-01-10T05:04:22;6.07;;;2.42;;
74196;SDS011;62555;52.678;4.900;2023-01-10T05:06:47;6.30;;;2.20;;
74196;SDS011;62555;52.678;4.900;2023-01-10T05:09:13;6.63;;;2.17;;
74196;SDS011;62555;52.678;4.900;2023-01-10T05:11:38;3.97;;;1.63;;
74196;SDS011;62555;52.678;4.900;2023-01-10T05:14:04;4.20;;;1.98;;
74196;SDS011;62555;52.678;4.900;2023-01-10T05:16:29;8.73;;;2.63;;
74196;SDS011;62555;52.678;4.900;2023-01-10T05:18:55;6.68;;;2.03;;
74196;SDS011;62555;52.678;4.900;2023-01-10T05:21:20;4.75;;;1.85;;
74196;SDS011;62555;52.678;4.900;2023-01-10T05:23:45;5.45;;;2.20;;
74196;SDS011;62555;52.678;4.900;2023-01-10T05:26:12;6.10;;;2.13;;
74196;SDS011;62555;52.678;4.900;2023-01-10T05:28:39;6.57;;;2.33;;
74196;SDS011;62555;52.678;4.900;2023-01-10T05:31:08;5.60;;;2.45;;
74196;SDS011;62555;52.678;4.900;2023-01-10T05:33:34;4.97;;;2.05;;
74196;SDS011;62555;52.678;4.900;2023-01-10T05:36:03;5.38;;;2.05;;
74196;SDS011;62555;52.678;4.900;2023-01-10T05:38:30;7.18;;;2.20;;
74196;SDS011;62555;52.678;4.900;2023-01-10T05:40:56;6.50;;;2.47;;
74196;SDS011;62555;52.678;4.900;2023-01-10T05:43:22;4.95;;;2.25;;
74196;SDS011;62555;52.678;4.900;2023-01-10T05:45:48;5.85;;;2.70;;
74196;SDS011;62555;52.678;4.900;2023-01-10T05:48:14;5.97;;;2.03;;
74196;SDS011;62555;52.678;4.900;2023-01-10T05:50:39;7.45;;;2.13;;
74196;SDS011;62555;52.678;4.900;2023-01-10T05:53:04;4.30;;;1.75;;
74196;SDS011;62555;52.678;4.900;2023-01-10T05:55:31;4.50;;;1.92;;
74196;SDS011;62555;52.678;4.900;2023-01-10T05:57:57;4.82;;;2.05;;
74196;SDS011;62555;52.678;4.900;2023-01-10T06:00:22;7.38;;;3.00;;
74196;SDS011;62555;52.678;4.900;2023-01-10T06:02:48;7.07;;;2.58;;
74196;SDS011;62555;52.678;4.900;2023-01-10T06:05:13;6.55;;;2.17;;
74196;SDS011;62555;52.678;4.900;2023-01-10T06:07:39;4.68;;;2.00;;
74196;SDS011;62555;52.678;4.900;2023-01-10T06:10:04;4.40;;;1.75;;
74196;SDS011;62555;52.678;4.900;2023-01-10T06:12:30;5.32;;;1.73;;
74196;SDS011;62555;52.678;4.900;2023-01-10T06:14:55;6.30;;;2.00;;
74196;SDS011;62555;52.678;4.900;2023-01-10T06:17:20;4.38;;;1.58;;
74196;SDS011;62555;52.678;4.900;2023-01-10T06:19:46;5.57;;;2.05;;
74196;SDS011;62555;52.678;4.900;2023-01-10T06:22:11;4.55;;;1.80;;
74196;SDS011;62555;52.678;4.900;2023-01-10T06:24:36;4.53;;;1.80;;
74196;SDS011;62555;52.678;4.900;2023-01-10T06:27:02;6.75;;;2.92;;
74196;SDS011;62555;52.678;4.900;2023-01-10T06:29:27;5.70;;;2.30;;
74196;SDS011;62555;52.678;4.900;2023-01-10T06:31:52;4.97;;;1.73;;
74196;SDS011;62555;52.678;4.900;2023-01-10T06:34:18;7.22;;;2.67;;
74196;SDS011;62555;52.678;4.900;2023-01-10T06:36:43;5.15;;;1.73;;
74196;SDS011;62555;52.678;4.900;2023-01-10T06:39:08;7.47;;;1.90;;
74196;SDS011;62555;52.678;4.900;2023-01-10T06:41:34;8.05;;;2.63;;
74196;SDS011;62555;52.678;4.900;2023-01-10T06:44:00;8.25;;;1.98;;
74196;SDS011;62555;52.678;4.900;2023-01-10T06:46:25;8.38;;;2.05;;
74196;SDS011;62555;52.678;4.900;2023-01-10T06:48:50;6.32;;;1.80;;
74196;SDS011;62555;52.678;4.900;2023-01-10T06:51:16;7.18;;;2.15;;
74196;SDS011;62555;52.678;4.900;2023-01-10T06:53:41;5.82;;;2.15;;
74196;SDS011;62555;52.678;4.900;2023-01-10T06:56:07;7.90;;;2.28;;
74196;SDS011;62555;52.678;4.900;2023-01-10T06:58:33;8.63;;;2.13;;
74196;SDS011;62555;52.678;4.900;2023-01-10T07:00:59;8.05;;;2.65;;
74196;SDS011;62555;52.678;4.900;2023-01-10T07:03:24;6.18;;;1.95;;
74196;SDS011;62555;52.678;4.900;2023-01-10T07:05:50;6.32;;;2.63;;
74196;SDS011;62555;52.678;4.900;2023-01-10T07:08:15;9.27;;;2.42;;
74196;SDS011;62555;52.678;4.900;2023-01-10T07:10:41;5.97;;;2.67;;
74196;SDS011;62555;52.678;4.900;2023-01-10T07:13:07;8.27;;;2.83;;
74196;SDS011;62555;52.678;4.900;2023-01-10T07:15:33;7.55;;;2.33;;
74196;SDS011;62555;52.678;4.900;2023-01-10T07:17:58;7.95;;;2.38;;
74196;SDS011;62555;52.678;4.900;2023-01-10T07:20:24;7.82;;;2.30;;
74196;SDS011;62555;52.678;4.900;2023-01-10T07:22:56;8.88;;;3.03;;
74196;SDS011;62555;52.678;4.900;2023-01-10T07:25:23;5.45;;;2.65;;
74196;SDS011;62555;52.678;4.900;2023-01-10T07:27:49;7.72;;;3.35;;
74196;SDS011;62555;52.678;4.900;2023-01-10T07:30:15;6.07;;;2.05;;
74196;SDS011;62555;52.678;4.900;2023-01-10T07:32:40;6.32;;;2.17;;
74196;SDS011;62555;52.678;4.900;2023-01-10T07:35:06;6.20;;;2.05;;
74196;SDS011;62555;52.678;4.900;2023-01-10T07:37:32;7.50;;;2.22;;
74196;SDS011;62555;52.678;4.900;2023-01-10T07:39:58;5.03;;;2.00;;
74196;SDS011;62555;52.678;4.900;2023-01-10T07:42:23;5.75;;;2.17;;
74196;SDS011;62555;52.678;4.900;2023-01-10T07:44:48;8.88;;;2.80;;
74196;SDS011;62555;52.678;4.900;2023-01-10T07:47:13;9.90;;;2.53;;
74196;SDS011;62555;52.678;4.900;2023-01-10T07:49:39;6.28;;;2.47;;
74196;SDS011;62555;52.678;4.900;2023-01-10T07:52:04;5.90;;;2.20;;
74196;SDS011;62555;52.678;4.900;2023-01-10T07:54:32;7.60;;;2.40;;
74196;SDS011;62555;52.678;4.900;2023-01-10T07:56:58;5.57;;;2.45;;
74196;SDS011;62555;52.678;4.900;2023-01-10T07:59:23;6.00;;;2.13;;
74196;SDS011;62555;52.678;4.900;2023-01-10T08:01:48;6.45;;;1.83;;
74196;SDS011;62555;52.678;4.900;2023-01-10T08:04:14;5.18;;;2.00;;
74196;SDS011;62555;52.678;4.900;2023-01-10T08:06:39;6.57;;;1.95;;
74196;SDS011;62555;52.678;4.900;2023-01-10T08:09:04;8.20;;;1.85;;
74196;SDS011;62555;52.678;4.900;2023-01-10T08:11:30;8.60;;;2.70;;
74196;SDS011;62555;52.678;4.900;2023-01-10T08:13:56;7.13;;;2.00;;
74196;SDS011;62555;52.678;4.900;2023-01-10T08:16:21;5.72;;;1.92;;
74196;SDS011;62555;52.678;4.900;2023-01-10T08:18:46;4.40;;;2.30;;
74196;SDS011;62555;52.678;4.900;2023-01-10T08:21:12;7.18;;;2.15;;
74196;SDS011;62555;52.678;4.900;2023-01-10T08:23:37;5.68;;;2.45;;
74196;SDS011;62555;52.678;4.900;2023-01-10T08:26:02;7.75;;;2.30;;
74196;SDS011;62555;52.678;4.900;2023-01-10T08:28:29;6.10;;;2.28;;
74196;SDS011;62555;52.678;4.900;2023-01-10T08:30:54;5.78;;;2.42;;
74196;SDS011;62555;52.678;4.900;2023-01-10T08:33:21;6.05;;;1.80;;
74196;SDS011;62555;52.678;4.900;2023-01-10T08:35:51;7.90;;;2.40;;
74196;SDS011;62555;52.678;4.900;2023-01-10T08:38:16;5.80;;;1.92;;
74196;SDS011;62555;52.678;4.900;2023-01-10T08:40:41;10.95;;;2.72;;
74196;SDS011;62555;52.678;4.900;2023-01-10T08:43:09;8.80;;;1.88;;
74196;SDS011;62555;52.678;4.900;2023-01-10T08:45:35;7.22;;;2.40;;
74196;SDS011;62555;52.678;4.900;2023-01-10T08:48:01;11.95;;;2.17;;
74196;SDS011;62555;52.678;4.900;2023-01-10T08:50:27;7.57;;;2.55;;
74196;SDS011;62555;52.678;4.900;2023-01-10T08:52:55;7.57;;;2.13;;
74196;SDS011;62555;52.678;4.900;2023-01-10T08:55:22;8.52;;;2.45;;
74196;SDS011;62555;52.678;4.900;2023-01-10T08:57:47;8.10;;;2.35;;
74196;SDS011;62555;52.678;4.900;2023-01-10T09:00:13;8.00;;;2.38;;
74196;SDS011;62555;52.678;4.900;2023-01-10T09:02:38;7.28;;;2.05;;
74196;SDS011;62555;52.678;4.900;2023-01-10T09:05:04;6.20;;;2.33;;
74196;SDS011;62555;52.678;4.900;2023-01-10T09:07:30;5.28;;;2.10;;
74196;SDS011;62555;52.678;4.900;2023-01-10T09:09:55;6.68;;;2.65;;
74196;SDS011;62555;52.678;4.900;2023-01-10T09:12:20;7.93;;;2.72;;
74196;SDS011;62555;52.678;4.900;2023-01-10T09:15:04;5.43;;;2.53;;
74196;SDS011;62555;52.678;4.900;2023-01-10T09:17:30;6.97;;;2.22;;
74196;SDS011;62555;52.678;4.900;2023-01-10T09:19:56;7.97;;;2.33;;
74196;SDS011;62555;52.678;4.900;2023-01-10T09:22:21;6.57;;;2.28;;
74196;SDS011;62555;52.678;4.900;2023-01-10T09:24:47;5.78;;;2.35;;
74196;SDS011;62555;52.678;4.900;2023-01-10T09:27:13;6.10;;;2.38;;
74196;SDS011;62555;52.678;4.900;2023-01-10T09:29:38;6.20;;;2.40;;
74196;SDS011;62555;52.678;4.900;2023-01-10T09:32:03;6.43;;;2.22;;
74196;SDS011;62555;52.678;4.900;2023-01-10T09:34:29;7.97;;;2.72;;
74196;SDS011;62555;52.678;4.900;2023-01-10T09:36:54;7.95;;;2.70;;
74196;SDS011;62555;52.678;4.900;2023-01-10T09:39:20;11.60;;;2.65;;
74196;SDS011;62555;52.678;4.900;2023-01-10T09:41:58;8.15;;;2.53;;
74196;SDS011;62555;52.678;4.900;2023-01-10T09:49:59;8.55;;;2.38;;
74196;SDS011;62555;52.678;4.900;2023-01-10T09:52:51;9.43;;;2.47;;
74196;SDS011;62555;52.678;4.900;2023-01-10T09:57:58;8.63;;;2.22;;
74196;SDS011;62555;52.678;4.900;2023-01-10T10:03:01;9.52;;;2.22;;
74196;SDS011;62555;52.678;4.900;2023-01-10T10:05:29;10.02;;;2.60;;
74196;SDS011;62555;52.678;4.900;2023-01-10T10:08:01;9.85;;;2.83;;
74196;SDS011;62555;52.678;4.900;2023-01-10T10:10:50;9.30;;;2.42;;
74196;SDS011;62555;52.678;4.900;2023-01-10T10:25:13;9.15;;;2.38;;
74196;SDS011;62555;52.678;4.900;2023-01-10T10:27:36;8.00;;;2.67;;
74196;SDS011;62555;52.678;4.900;2023-01-10T10:30:11;6.97;;;2.67;;
74196;SDS011;62555;52.678;4.900;2023-01-10T10:32:46;9.02;;;2.50;;
74196;SDS011;62555;52.678;4.900;2023-01-10T10:35:35;6.13;;;2.65;;
74196;SDS011;62555;52.678;4.900;2023-01-10T10:38:13;9.43;;;3.05;;
74196;SDS011;62555;52.678;4.900;2023-01-10T10:40:43;9.35;;;2.80;;
74196;SDS011;62555;52.678;4.900;2023-01-10T10:43:13;8.40;;;2.60;;
74196;SDS011;62555;52.678;4.900;2023-01-10T10:45:46;8.07;;;2.33;;
74196;SDS011;62555;52.678;4.900;2023-01-10T10:48:26;5.78;;;2.55;;
74196;SDS011;62555;52.678;4.900;2023-01-10T10:50:57;8.10;;;2.53;;
74196;SDS011;62555;52.678;4.900;2023-01-10T10:53:24;8.05;;;2.65;;
74196;SDS011;62555;52.678;4.900;2023-01-10T10:55:49;8.18;;;2.30;;
74196;SDS011;62555;52.678;4.900;2023-01-10T10:58:15;13.02;;;3.88;;
74196;SDS011;62555;52.678;4.900;2023-01-10T11:00:40;9.98;;;3.20;;
74196;SDS011;62555;52.678;4.900;2023-01-10T11:06:02;8.98;;;2.60;;
74196;SDS011;62555;52.678;4.900;2023-01-10T11:08:30;7.10;;;2.90;;
74196;SDS011;62555;52.678;4.900;2023-01-10T11:10:56;11.13;;;3.05;;
74196;SDS011;62555;52.678;4.900;2023-01-10T11:15:51;12.50;;;2.63;;
74196;SDS011;62555;52.678;4.900;2023-01-10T11:18:20;8.75;;;2.70;;
74196;SDS011;62555;52.678;4.900;2023-01-10T11:23:40;9.75;;;3.22;;
74196;SDS011;62555;52.678;4.900;2023-01-10T11:26:07;8.18;;;3.97;;
74196;SDS011;62555;52.678;4.900;2023-01-10T11:29:14;6.45;;;2.92;;
74196;SDS011;62555;52.678;4.900;2023-01-10T11:32:11;9.00;;;3.63;;
74196;SDS011;62555;52.678;4.900;2023-01-10T11:34:39;10.63;;;3.30;;
74196;SDS011;62555;52.678;4.900;2023-01-10T11:39:40;7.15;;;2.83;;
74196;SDS011;62555;52.678;4.900;2023-01-10T11:42:25;10.48;;;2.75;;
74196;SDS011;62555;52.678;4.900;2023-01-10T11:44:54;7.78;;;3.05;;
74196;SDS011;62555;52.678;4.900;2023-01-10T11:47:19;7.88;;;3.05;;
74196;SDS011;62555;52.678;4.900;2023-01-10T11:49:46;9.98;;;4.30;;
74196;SDS011;62555;52.678;4.900;2023-01-10T11:52:22;9.15;;;3.40;;
74196;SDS011;62555;52.678;4.900;2023-01-10T11:54:49;11.10;;;3.20;;
74196;SDS011;62555;52.678;4.900;2023-01-10T11:57:17;7.85;;;2.72;;
74196;SDS011;62555;52.678;4.900;2023-01-10T11:59:53;11.07;;;3.97;;
74196;SDS011;62555;52.678;4.900;2023-01-10T12:02:23;8.63;;;2.70;;
74196;SDS011;62555;52.678;4.900;2023-01-10T12:04:56;11.57;;;3.83;;
74196;SDS011;62555;52.678;4.900;2023-01-10T12:07:22;8.23;;;3.15;;
74196;SDS011;62555;52.678;4.900;2023-01-10T12:09:58;11.10;;;3.47;;
74196;SDS011;62555;52.678;4.900;2023-01-10T12:12:26;9.88;;;3.10;;
74196;SDS011;62555;52.678;4.900;2023-01-10T12:14:53;11.20;;;3.20;;
74196;SDS011;62555;52.678;4.900;2023-01-10T12:20:01;8.75;;;2.50;;
74196;SDS011;62555;52.678;4.900;2023-01-10T12:22:37;7.80;;;2.88;;
74196;SDS011;62555;52.678;4.900;2023-01-10T12:33:05;7.35;;;2.83;;
74196;SDS011;62555;52.678;4.900;2023-01-10T12:35:37;8.57;;;3.08;;
74196;SDS011;62555;52.678;4.900;2023-01-10T12:40:45;10.77;;;3.05;;
74196;SDS011;62555;52.678;4.900;2023-01-10T12:43:20;8.18;;;3.47;;
74196;SDS011;62555;52.678;4.900;2023-01-10T12:46:20;7.45;;;3.08;;
74196;SDS011;62555;52.678;4.900;2023-01-10T12:51:23;10.85;;;3.65;;
74196;SDS011;62555;52.678;4.900;2023-01-10T12:53:53;8.65;;;3.10;;
74196;SDS011;62555;52.678;4.900;2023-01-10T12:56:20;11.18;;;3.30;;
74196;SDS011;62555;52.678;4.900;2023-01-10T12:58:47;10.38;;;3.47;;
74196;SDS011;62555;52.678;4.900;2023-01-10T13:01:23;7.05;;;3.25;;
74196;SDS011;62555;52.678;4.900;2023-01-10T13:03:55;11.10;;;3.00;;
74196;SDS011;62555;52.678;4.900;2023-01-10T13:06:32;11.18;;;2.95;;
74196;SDS011;62555;52.678;4.900;2023-01-10T13:08:59;13.65;;;3.40;;
74196;SDS011;62555;52.678;4.900;2023-01-10T13:11:30;9.65;;;2.80;;
74196;SDS011;62555;52.678;4.900;2023-01-10T13:14:04;9.15;;;3.13;;
74196;SDS011;62555;52.678;4.900;2023-01-10T13:21:31;9.25;;;2.85;;
74196;SDS011;62555;52.678;4.900;2023-01-10T13:29:11;9.40;;;3.20;;
74196;SDS011;62555;52.678;4.900;2023-01-10T13:31:42;10.35;;;3.15;;
74196;SDS011;62555;52.678;4.900;2023-01-10T13:34:12;10.52;;;2.72;;
74196;SDS011;62555;52.678;4.900;2023-01-10T13:36:39;11.20;;;2.88;;
74196;SDS011;62555;52.678;4.900;2023-01-10T13:52:46;6.95;;;2.75;;
74196;SDS011;62555;52.678;4.900;2023-01-10T13:55:19;7.05;;;3.55;;
74196;SDS011;62555;52.678;4.900;2023-01-10T14:08:54;8.63;;;2.97;;
74196;SDS011;62555;52.678;4.900;2023-01-10T14:11:21;7.75;;;2.58;;
74196;SDS011;62555;52.678;4.900;2023-01-10T14:16:29;7.57;;;3.17;;
74196;SDS011;62555;52.678;4.900;2023-01-10T14:18:56;9.07;;;4.03;;
74196;SDS011;62555;52.678;4.900;2023-01-10T14:21:23;8.23;;;3.28;;
74196;SDS011;62555;52.678;4.900;2023-01-10T14:23:49;8.88;;;2.88;;
74196;SDS011;62555;52.678;4.900;2023-01-10T14:29:05;8.55;;;2.60;;
74196;SDS011;62555;52.678;4.900;2023-01-10T14:31:32;13.40;;;3.58;;
74196;SDS011;62555;52.678;4.900;2023-01-10T14:34:01;8.15;;;2.75;;
74196;SDS011;62555;52.678;4.900;2023-01-10T14:36:30;6.65;;;2.83;;
74196;SDS011;62555;52.678;4.900;2023-01-10T14:38:59;10.07;;;3.22;;
74196;SDS011;62555;52.678;4.900;2023-01-10T14:41:30;5.63;;;3.13;;
74196;SDS011;62555;52.678;4.900;2023-01-10T14:44:01;6.53;;;2.47;;
74196;SDS011;62555;52.678;4.900;2023-01-10T14:51:46;11.23;;;3.13;;
74196;SDS011;62555;52.678;4.900;2023-01-10T14:54:15;8.63;;;3.33;;
74196;SDS011;62555;52.678;4.900;2023-01-10T14:56:45;6.75;;;2.55;;
74196;SDS011;62555;52.678;4.900;2023-01-10T15:01:42;8.40;;;2.60;;
74196;SDS011;62555;52.678;4.900;2023-01-10T15:04:12;8.88;;;2.92;;
74196;SDS011;62555;52.678;4.900;2023-01-10T15:06:49;10.38;;;2.83;;
74196;SDS011;62555;52.678;4.900;2023-01-10T15:09:16;8.13;;;3.00;;
74196;SDS011;62555;52.678;4.900;2023-01-10T15:11:41;5.35;;;2.47;;
74196;SDS011;62555;52.678;4.900;2023-01-10T15:14:08;8.65;;;2.63;;
74196;SDS011;62555;52.678;4.900;2023-01-10T15:16:34;7.60;;;3.10;;
74196;SDS011;62555;52.678;4.900;2023-01-10T15:19:01;8.95;;;3.35;;
74196;SDS011;62555;52.678;4.900;2023-01-10T15:21:26;8.77;;;2.75;;
74196;SDS011;62555;52.678;4.900;2023-01-10T15:23:52;7.10;;;2.88;;
74196;SDS011;62555;52.678;4.900;2023-01-10T15:26:27;6.65;;;3.15;;
74196;SDS011;62555;52.678;4.900;2023-01-10T15:29:10;6.88;;;2.80;;
74196;SDS011;62555;52.678;4.900;2023-01-10T15:31:37;9.50;;;3.28;;
74196;SDS011;62555;52.678;4.900;2023-01-10T15:34:07;8.77;;;2.85;;
74196;SDS011;62555;52.678;4.900;2023-01-10T15:36:33;8.50;;;2.90;;
74196;SDS011;62555;52.678;4.900;2023-01-10T15:38:58;8.65;;;2.50;;
74196;SDS011;62555;52.678;4.900;2023-01-10T15:41:24;7.90;;;2.63;;
74196;SDS011;62555;52.678;4.900;2023-01-10T15:43:50;6.35;;;2.70;;
74196;SDS011;62555;52.678;4.900;2023-01-10T15:46:19;5.53;;;2.63;;
74196;SDS011;62555;52.678;4.900;2023-01-10T15:48:58;7.03;;;2.75;;
74196;SDS011;62555;52.678;4.900;2023-01-10T15:53:59;6.28;;;2.95;;
74196;SDS011;62555;52.678;4.900;2023-01-10T15:56:46;7.25;;;3.03;;
74196;SDS011;62555;52.678;4.900;2023-01-10T16:02:01;7.20;;;2.92;;
74196;SDS011;62555;52.678;4.900;2023-01-10T16:04:33;7.90;;;3.25;;
74196;SDS011;62555;52.678;4.900;2023-01-10T16:07:33;7.50;;;2.63;;
74196;SDS011;62555;52.678;4.900;2023-01-10T16:10:00;5.50;;;2.70;;
74196;SDS011;62555;52.678;4.900;2023-01-10T16:12:33;6.30;;;3.25;;
74196;SDS011;62555;52.678;4.900;2023-01-10T16:15:20;7.80;;;3.13;;
74196;SDS011;62555;52.678;4.900;2023-01-10T16:17:50;6.75;;;2.95;;
74196;SDS011;62555;52.678;4.900;2023-01-10T16:20:16;6.38;;;4.03;;
74196;SDS011;62555;52.678;4.900;2023-01-10T16:22:43;6.80;;;2.95;;
74196;SDS011;62555;52.678;4.900;2023-01-10T16:25:19;5.28;;;2.65;;
74196;SDS011;62555;52.678;4.900;2023-01-10T16:27:51;6.30;;;2.92;;
74196;SDS011;62555;52.678;4.900;2023-01-10T16:30:28;6.70;;;2.70;;
74196;SDS011;62555;52.678;4.900;2023-01-10T16:32:55;6.50;;;2.67;;
74196;SDS011;62555;52.678;4.900;2023-01-10T16:35:21;7.03;;;2.53;;
74196;SDS011;62555;52.678;4.900;2023-01-10T16:37:47;6.85;;;2.50;;
74196;SDS011;62555;52.678;4.900;2023-01-10T16:40:20;5.85;;;2.70;;
74196;SDS011;62555;52.678;4.900;2023-01-10T16:42:46;4.63;;;2.67;;
74196;SDS011;62555;52.678;4.900;2023-01-10T16:45:30;5.55;;;2.42;;
74196;SDS011;62555;52.678;4.900;2023-01-10T16:47:56;6.57;;;2.38;;
74196;SDS011;62555;52.678;4.900;2023-01-10T16:50:21;4.50;;;2.63;;
74196;SDS011;62555;52.678;4.900;2023-01-10T16:52:46;6.05;;;2.53;;
74196;SDS011;62555;52.678;4.900;2023-01-10T16:55:13;4.60;;;2.30;;
74196;SDS011;62555;52.678;4.900;2023-01-10T16:57:40;5.30;;;2.95;;
74196;SDS011;62555;52.678;4.900;2023-01-10T17:00:10;4.90;;;2.83;;
74196;SDS011;62555;52.678;4.900;2023-01-10T17:02:36;6.40;;;2.55;;
74196;SDS011;62555;52.678;4.900;2023-01-10T17:05:02;4.32;;;2.10;;
74196;SDS011;62555;52.678;4.900;2023-01-10T17:07:28;4.70;;;2.58;;